sensor_id;sensor_type;location;lat;lon;timestamp;P1;durP1;ratioP1;P2;durP2;ratioP2
16039;SDS011;8124;48.634;8.120;2023-08-31T00:01:59;42.30;;;37.03;;
16039;SDS011;8124;48.634;8.120;2023-08-31T00:07:04;42.58;;;37.05;;
16039;SDS011;8124;48.634;8.120;2023-08-31T00:12:08;42.65;;;37.03;;
16039;SDS011;8124;48.634;8.120;2023-08-31T00:17:11;41.80;;;36.78;;
16039;SDS011;8124;48.634;8.120;2023-08-31T00:22:16;41.50;;;37.00;;
16039;SDS011;8124;48.634;8.120;2023-08-31T00:27:19;42.70;;;37.10;;
16039;SDS011;8124;48.634;8.120;2023-08-31T00:32:23;44.22;;;37.67;;
16039;SDS011;8124;48.634;8.120;2023-08-31T00:37:27;41.90;;;37.28;;
16039;SDS011;8124;48.634;8.120;2023-08-31T00:42:30;43.47;;;36.72;;
16039;SDS011;8124;48.634;8.120;2023-08-31T00:47:33;41.95;;;37.00;;
16039;SDS011;8124;48.634;8.120;2023-08-31T00:52:38;41.65;;;36.67;;
16039;SDS011;8124;48.634;8.120;2023-08-31T00:57:42;43.92;;;37.10;;
16039;SDS011;8124;48.634;8.120;2023-08-31T01:02:48;41.55;;;36.88;;
16039;SDS011;8124;48.634;8.120;2023-08-31T01:08:03;40.90;;;36.40;;
16039;SDS011;8124;48.634;8.120;2023-08-31T01:13:18;41.88;;;36.88;;
16039;SDS011;8124;48.634;8.120;2023-08-31T01:18:25;41.97;;;37.05;;
16039;SDS011;8124;48.634;8.120;2023-08-31T01:28:45;43.05;;;37.17;;
16039;SDS011;8124;48.634;8.120;2023-08-31T01:33:49;41.45;;;36.92;;
16039;SDS011;8124;48.634;8.120;2023-08-31T01:38:55;42.28;;;37.25;;
16039;SDS011;8124;48.634;8.120;2023-08-31T01:44:05;41.08;;;36.33;;
16039;SDS011;8124;48.634;8.120;2023-08-31T01:49:12;42.35;;;36.78;;
16039;SDS011;8124;48.634;8.120;2023-08-31T01:54:17;41.00;;;36.50;;
16039;SDS011;8124;48.634;8.120;2023-08-31T01:59:20;41.70;;;37.13;;
16039;SDS011;8124;48.634;8.120;2023-08-31T02:04:23;42.60;;;36.42;;
16039;SDS011;8124;48.634;8.120;2023-08-31T02:09:28;43.05;;;37.38;;
16039;SDS011;8124;48.634;8.120;2023-08-31T02:14:31;41.10;;;36.28;;
16039;SDS011;8124;48.634;8.120;2023-08-31T02:19:33;41.00;;;36.50;;
16039;SDS011;8124;48.634;8.120;2023-08-31T02:24:38;41.35;;;36.42;;
16039;SDS011;8124;48.634;8.120;2023-08-31T02:29:41;41.85;;;36.45;;
16039;SDS011;8124;48.634;8.120;2023-08-31T02:34:44;44.28;;;36.88;;
16039;SDS011;8124;48.634;8.120;2023-08-31T02:39:48;41.15;;;36.65;;
16039;SDS011;8124;48.634;8.120;2023-08-31T02:44:51;41.30;;;36.63;;
16039;SDS011;8124;48.634;8.120;2023-08-31T02:49:55;42.67;;;36.70;;
16039;SDS011;8124;48.634;8.120;2023-08-31T02:54:59;43.08;;;36.92;;
16039;SDS011;8124;48.634;8.120;2023-08-31T03:00:03;42.47;;;36.90;;
16039;SDS011;8124;48.634;8.120;2023-08-31T03:05:12;41.65;;;37.03;;
16039;SDS011;8124;48.634;8.120;2023-08-31T03:10:17;43.67;;;36.55;;
16039;SDS011;8124;48.634;8.120;2023-08-31T03:15:23;43.65;;;36.88;;
16039;SDS011;8124;48.634;8.120;2023-08-31T03:20:26;45.03;;;36.35;;
16039;SDS011;8124;48.634;8.120;2023-08-31T03:25:30;42.33;;;36.38;;
16039;SDS011;8124;48.634;8.120;2023-08-31T03:30:33;41.83;;;36.88;;
16039;SDS011;8124;48.634;8.120;2023-08-31T03:35:36;41.58;;;36.67;;
16039;SDS011;8124;48.634;8.120;2023-08-31T03:40:41;42.85;;;36.75;;
16039;SDS011;8124;48.634;8.120;2023-08-31T03:45:44;42.47;;;36.83;;
16039;SDS011;8124;48.634;8.120;2023-08-31T03:50:48;43.55;;;37.03;;
16039;SDS011;8124;48.634;8.120;2023-08-31T03:55:53;41.63;;;37.03;;
16039;SDS011;8124;48.634;8.120;2023-08-31T04:00:57;41.25;;;36.72;;
16039;SDS011;8124;48.634;8.120;2023-08-31T04:06:00;41.55;;;36.97;;
16039;SDS011;8124;48.634;8.120;2023-08-31T04:11:06;41.15;;;36.40;;
16039;SDS011;8124;48.634;8.120;2023-08-31T04:16:10;42.95;;;36.78;;
16039;SDS011;8124;48.634;8.120;2023-08-31T04:21:13;42.15;;;36.67;;
16039;SDS011;8124;48.634;8.120;2023-08-31T04:26:17;41.88;;;36.53;;
16039;SDS011;8124;48.634;8.120;2023-08-31T04:31:21;44.88;;;36.85;;
16039;SDS011;8124;48.634;8.120;2023-08-31T04:36:24;43.47;;;36.25;;
16039;SDS011;8124;48.634;8.120;2023-08-31T04:41:29;43.42;;;36.47;;
16039;SDS011;8124;48.634;8.120;2023-08-31T04:46:32;41.50;;;36.40;;
16039;SDS011;8124;48.634;8.120;2023-08-31T04:51:35;42.17;;;36.22;;
16039;SDS011;8124;48.634;8.120;2023-08-31T04:56:42;43.95;;;36.95;;
16039;SDS011;8124;48.634;8.120;2023-08-31T05:01:44;45.35;;;36.25;;
16039;SDS011;8124;48.634;8.120;2023-08-31T05:06:47;41.55;;;35.88;;
16039;SDS011;8124;48.634;8.120;2023-08-31T05:11:52;44.88;;;36.40;;
16039;SDS011;8124;48.634;8.120;2023-08-31T05:16:55;44.72;;;36.17;;
16039;SDS011;8124;48.634;8.120;2023-08-31T05:21:58;42.42;;;36.22;;
16039;SDS011;8124;48.634;8.120;2023-08-31T05:27:03;42.55;;;37.05;;
16039;SDS011;8124;48.634;8.120;2023-08-31T05:32:06;44.45;;;36.58;;
16039;SDS011;8124;48.634;8.120;2023-08-31T05:37:09;41.35;;;36.50;;
16039;SDS011;8124;48.634;8.120;2023-08-31T05:42:14;41.83;;;36.28;;
16039;SDS011;8124;48.634;8.120;2023-08-31T05:47:17;43.15;;;36.38;;
16039;SDS011;8124;48.634;8.120;2023-08-31T05:52:21;40.95;;;36.05;;
16039;SDS011;8124;48.634;8.120;2023-08-31T05:57:25;42.63;;;36.00;;
16039;SDS011;8124;48.634;8.120;2023-08-31T06:02:29;41.97;;;36.13;;
16039;SDS011;8124;48.634;8.120;2023-08-31T06:07:32;41.47;;;36.25;;
16039;SDS011;8124;48.634;8.120;2023-08-31T06:12:36;43.72;;;37.47;;
16039;SDS011;8124;48.634;8.120;2023-08-31T06:17:39;42.70;;;36.58;;
16039;SDS011;8124;48.634;8.120;2023-08-31T06:22:43;44.42;;;36.33;;
16039;SDS011;8124;48.634;8.120;2023-08-31T06:27:47;42.90;;;36.75;;
16039;SDS011;8124;48.634;8.120;2023-08-31T06:32:50;40.92;;;36.22;;
16039;SDS011;8124;48.634;8.120;2023-08-31T06:37:53;42.35;;;36.25;;
16039;SDS011;8124;48.634;8.120;2023-08-31T06:42:58;43.45;;;36.78;;
16039;SDS011;8124;48.634;8.120;2023-08-31T06:48:02;44.28;;;37.08;;
16039;SDS011;8124;48.634;8.120;2023-08-31T06:53:05;41.00;;;36.50;;
16039;SDS011;8124;48.634;8.120;2023-08-31T06:58:10;44.08;;;37.40;;
16039;SDS011;8124;48.634;8.120;2023-08-31T07:03:13;41.17;;;36.05;;
16039;SDS011;8124;48.634;8.120;2023-08-31T07:08:19;42.28;;;36.88;;
16039;SDS011;8124;48.634;8.120;2023-08-31T07:13:23;42.22;;;36.30;;
16039;SDS011;8124;48.634;8.120;2023-08-31T07:18:26;41.80;;;36.75;;
16039;SDS011;8124;48.634;8.120;2023-08-31T07:23:30;44.08;;;37.40;;
16039;SDS011;8124;48.634;8.120;2023-08-31T07:28:34;42.92;;;37.08;;
16039;SDS011;8124;48.634;8.120;2023-08-31T07:33:37;42.90;;;37.33;;
16039;SDS011;8124;48.634;8.120;2023-08-31T07:38:41;47.58;;;37.13;;
16039;SDS011;8124;48.634;8.120;2023-08-31T07:43:45;41.13;;;36.63;;
16039;SDS011;8124;48.634;8.120;2023-08-31T07:49:05;45.15;;;37.45;;
16039;SDS011;8124;48.634;8.120;2023-08-31T07:54:08;41.70;;;36.95;;
16039;SDS011;8124;48.634;8.120;2023-08-31T07:59:12;43.72;;;37.03;;
16039;SDS011;8124;48.634;8.120;2023-08-31T08:04:15;48.00;;;37.50;;
16039;SDS011;8124;48.634;8.120;2023-08-31T08:09:20;45.17;;;37.42;;
16039;SDS011;8124;48.634;8.120;2023-08-31T08:14:25;42.90;;;37.08;;
16039;SDS011;8124;48.634;8.120;2023-08-31T08:19:30;42.33;;;37.13;;
16039;SDS011;8124;48.634;8.120;2023-08-31T08:24:34;42.30;;;37.22;;
16039;SDS011;8124;48.634;8.120;2023-08-31T08:29:40;44.45;;;37.17;;
16039;SDS011;8124;48.634;8.120;2023-08-31T08:34:54;43.22;;;37.03;;
16039;SDS011;8124;48.634;8.120;2023-08-31T08:40:02;42.22;;;37.10;;
16039;SDS011;8124;48.634;8.120;2023-08-31T08:45:08;44.72;;;37.50;;
16039;SDS011;8124;48.634;8.120;2023-08-31T08:50:18;42.50;;;37.78;;
16039;SDS011;8124;48.634;8.120;2023-08-31T08:55:24;41.63;;;37.03;;
16039;SDS011;8124;48.634;8.120;2023-08-31T09:00:28;43.45;;;37.60;;
16039;SDS011;8124;48.634;8.120;2023-08-31T09:05:32;45.40;;;37.53;;
16039;SDS011;8124;48.634;8.120;2023-08-31T09:10:36;42.78;;;36.90;;
16039;SDS011;8124;48.634;8.120;2023-08-31T09:15:43;43.47;;;37.60;;
16039;SDS011;8124;48.634;8.120;2023-08-31T09:20:47;42.25;;;37.42;;
16039;SDS011;8124;48.634;8.120;2023-08-31T09:25:50;43.00;;;36.95;;
16039;SDS011;8124;48.634;8.120;2023-08-31T09:31:03;44.75;;;37.35;;
16039;SDS011;8124;48.634;8.120;2023-08-31T09:36:07;45.83;;;37.78;;
16039;SDS011;8124;48.634;8.120;2023-08-31T09:41:11;43.78;;;37.95;;
16039;SDS011;8124;48.634;8.120;2023-08-31T09:46:15;46.03;;;37.40;;
16039;SDS011;8124;48.634;8.120;2023-08-31T09:51:19;43.85;;;39.15;;
16039;SDS011;8124;48.634;8.120;2023-08-31T09:56:25;43.65;;;38.00;;
16039;SDS011;8124;48.634;8.120;2023-08-31T10:01:33;44.92;;;37.55;;
16039;SDS011;8124;48.634;8.120;2023-08-31T10:06:36;45.63;;;37.95;;
16039;SDS011;8124;48.634;8.120;2023-08-31T10:11:41;45.03;;;38.95;;
16039;SDS011;8124;48.634;8.120;2023-08-31T10:16:46;43.72;;;37.70;;
16039;SDS011;8124;48.634;8.120;2023-08-31T10:21:50;43.22;;;37.95;;
16039;SDS011;8124;48.634;8.120;2023-08-31T10:26:53;43.83;;;38.20;;
16039;SDS011;8124;48.634;8.120;2023-08-31T10:32:01;45.05;;;37.75;;
16039;SDS011;8124;48.634;8.120;2023-08-31T10:37:19;45.38;;;37.65;;
16039;SDS011;8124;48.634;8.120;2023-08-31T10:42:23;44.63;;;38.25;;
16039;SDS011;8124;48.634;8.120;2023-08-31T10:47:37;46.28;;;38.85;;
16039;SDS011;8124;48.634;8.120;2023-08-31T10:52:44;45.00;;;38.30;;
16039;SDS011;8124;48.634;8.120;2023-08-31T10:57:48;45.10;;;38.65;;
16039;SDS011;8124;48.634;8.120;2023-08-31T11:02:52;44.38;;;38.13;;
16039;SDS011;8124;48.634;8.120;2023-08-31T11:07:57;43.03;;;37.60;;
16039;SDS011;8124;48.634;8.120;2023-08-31T11:13:04;42.83;;;37.90;;
16039;SDS011;8124;48.634;8.120;2023-08-31T11:18:08;42.65;;;37.80;;
16039;SDS011;8124;48.634;8.120;2023-08-31T11:23:11;43.65;;;37.78;;
16039;SDS011;8124;48.634;8.120;2023-08-31T11:28:15;42.65;;;37.67;;
16039;SDS011;8124;48.634;8.120;2023-08-31T11:33:19;43.08;;;37.85;;
16039;SDS011;8124;48.634;8.120;2023-08-31T11:38:23;45.17;;;37.83;;
16039;SDS011;8124;48.634;8.120;2023-08-31T11:43:26;42.28;;;37.65;;
16039;SDS011;8124;48.634;8.120;2023-08-31T11:48:31;47.65;;;37.92;;
16039;SDS011;8124;48.634;8.120;2023-08-31T11:53:34;43.50;;;37.85;;
16039;SDS011;8124;48.634;8.120;2023-08-31T11:58:40;44.45;;;38.05;;
16039;SDS011;8124;48.634;8.120;2023-08-31T12:03:56;46.33;;;38.33;;
16039;SDS011;8124;48.634;8.120;2023-08-31T12:08:59;44.55;;;38.00;;
16039;SDS011;8124;48.634;8.120;2023-08-31T12:14:03;44.17;;;38.25;;
16039;SDS011;8124;48.634;8.120;2023-08-31T12:19:21;45.97;;;38.33;;
16039;SDS011;8124;48.634;8.120;2023-08-31T12:24:29;45.47;;;38.20;;
16039;SDS011;8124;48.634;8.120;2023-08-31T12:29:39;46.47;;;38.10;;
16039;SDS011;8124;48.634;8.120;2023-08-31T12:34:44;45.50;;;38.13;;
16039;SDS011;8124;48.634;8.120;2023-08-31T12:39:46;43.13;;;37.90;;
16039;SDS011;8124;48.634;8.120;2023-08-31T12:44:49;44.90;;;38.55;;
16039;SDS011;8124;48.634;8.120;2023-08-31T12:49:54;46.00;;;38.17;;
16039;SDS011;8124;48.634;8.120;2023-08-31T12:54:57;44.35;;;38.30;;
16039;SDS011;8124;48.634;8.120;2023-08-31T13:00:00;45.33;;;38.17;;
16039;SDS011;8124;48.634;8.120;2023-08-31T13:05:07;43.13;;;38.25;;
16039;SDS011;8124;48.634;8.120;2023-08-31T13:10:11;45.10;;;38.38;;
16039;SDS011;8124;48.634;8.120;2023-08-31T13:15:14;45.63;;;38.50;;
16039;SDS011;8124;48.634;8.120;2023-08-31T13:20:18;43.85;;;38.25;;
16039;SDS011;8124;48.634;8.120;2023-08-31T13:25:21;44.83;;;38.22;;
16039;SDS011;8124;48.634;8.120;2023-08-31T13:30:27;47.15;;;38.47;;
16039;SDS011;8124;48.634;8.120;2023-08-31T13:35:35;46.30;;;38.67;;
16039;SDS011;8124;48.634;8.120;2023-08-31T13:40:38;48.70;;;39.13;;
16039;SDS011;8124;48.634;8.120;2023-08-31T13:45:41;45.38;;;38.80;;
16039;SDS011;8124;48.634;8.120;2023-08-31T13:50:47;45.50;;;38.78;;
16039;SDS011;8124;48.634;8.120;2023-08-31T13:55:50;44.83;;;38.63;;
16039;SDS011;8124;48.634;8.120;2023-08-31T14:00:53;45.25;;;38.13;;
16039;SDS011;8124;48.634;8.120;2023-08-31T14:05:57;46.40;;;38.55;;
16039;SDS011;8124;48.634;8.120;2023-08-31T14:11:00;45.08;;;38.50;;
16039;SDS011;8124;48.634;8.120;2023-08-31T14:16:03;47.53;;;39.20;;
16039;SDS011;8124;48.634;8.120;2023-08-31T14:21:09;45.40;;;38.88;;
16039;SDS011;8124;48.634;8.120;2023-08-31T14:27:16;46.10;;;39.65;;
16039;SDS011;8124;48.634;8.120;2023-08-31T14:46:43;45.97;;;39.08;;
16039;SDS011;8124;48.634;8.120;2023-08-31T14:51:48;45.08;;;38.95;;
16039;SDS011;8124;48.634;8.120;2023-08-31T14:56:57;46.05;;;38.60;;
16039;SDS011;8124;48.634;8.120;2023-08-31T15:02:06;45.22;;;38.50;;
16039;SDS011;8124;48.634;8.120;2023-08-31T15:07:10;45.65;;;39.38;;
16039;SDS011;8124;48.634;8.120;2023-08-31T15:12:22;46.45;;;38.55;;
16039;SDS011;8124;48.634;8.120;2023-08-31T15:17:27;45.10;;;38.97;;
16039;SDS011;8124;48.634;8.120;2023-08-31T15:22:31;48.38;;;39.15;;
16039;SDS011;8124;48.634;8.120;2023-08-31T15:27:36;49.78;;;39.63;;
16039;SDS011;8124;48.634;8.120;2023-08-31T15:32:41;45.83;;;38.83;;
16039;SDS011;8124;48.634;8.120;2023-08-31T15:37:46;46.55;;;39.10;;
16039;SDS011;8124;48.634;8.120;2023-08-31T15:42:53;48.15;;;39.25;;
16039;SDS011;8124;48.634;8.120;2023-08-31T15:47:58;44.33;;;38.85;;
16039;SDS011;8124;48.634;8.120;2023-08-31T15:53:02;43.88;;;38.70;;
16039;SDS011;8124;48.634;8.120;2023-08-31T15:58:07;44.55;;;38.80;;
16039;SDS011;8124;48.634;8.120;2023-08-31T16:03:13;43.90;;;38.78;;
16039;SDS011;8124;48.634;8.120;2023-08-31T16:08:16;43.95;;;38.80;;
16039;SDS011;8124;48.634;8.120;2023-08-31T16:13:19;45.00;;;38.90;;
16039;SDS011;8124;48.634;8.120;2023-08-31T16:18:24;45.58;;;38.33;;
16039;SDS011;8124;48.634;8.120;2023-08-31T16:23:28;44.33;;;38.83;;
16039;SDS011;8124;48.634;8.120;2023-08-31T16:28:32;44.38;;;38.88;;
16039;SDS011;8124;48.634;8.120;2023-08-31T16:33:36;47.25;;;38.92;;
16039;SDS011;8124;48.634;8.120;2023-08-31T16:38:39;46.38;;;39.10;;
16039;SDS011;8124;48.634;8.120;2023-08-31T16:43:43;45.00;;;38.80;;
16039;SDS011;8124;48.634;8.120;2023-08-31T16:48:48;44.72;;;39.10;;
16039;SDS011;8124;48.634;8.120;2023-08-31T16:53:51;45.15;;;39.15;;
16039;SDS011;8124;48.634;8.120;2023-08-31T16:58:54;45.75;;;38.95;;
16039;SDS011;8124;48.634;8.120;2023-08-31T17:04:01;44.53;;;38.75;;
16039;SDS011;8124;48.634;8.120;2023-08-31T17:09:05;43.97;;;38.83;;
16039;SDS011;8124;48.634;8.120;2023-08-31T17:14:09;43.30;;;38.53;;
16039;SDS011;8124;48.634;8.120;2023-08-31T17:19:17;47.58;;;39.30;;
16039;SDS011;8124;48.634;8.120;2023-08-31T17:24:20;44.50;;;39.22;;
16039;SDS011;8124;48.634;8.120;2023-08-31T17:29:25;43.15;;;38.45;;
16039;SDS011;8124;48.634;8.120;2023-08-31T17:34:29;44.28;;;38.70;;
16039;SDS011;8124;48.634;8.120;2023-08-31T17:39:32;44.33;;;38.80;;
16039;SDS011;8124;48.634;8.120;2023-08-31T17:44:35;47.00;;;39.78;;
16039;SDS011;8124;48.634;8.120;2023-08-31T17:49:40;46.83;;;38.95;;
16039;SDS011;8124;48.634;8.120;2023-08-31T17:54:43;44.13;;;38.50;;
16039;SDS011;8124;48.634;8.120;2023-08-31T17:59:52;45.65;;;39.42;;
16039;SDS011;8124;48.634;8.120;2023-08-31T18:05:14;43.55;;;38.58;;
16039;SDS011;8124;48.634;8.120;2023-08-31T18:10:18;44.13;;;38.30;;
16039;SDS011;8124;48.634;8.120;2023-08-31T18:15:36;43.90;;;38.53;;
16039;SDS011;8124;48.634;8.120;2023-08-31T18:20:50;46.40;;;38.42;;
16039;SDS011;8124;48.634;8.120;2023-08-31T18:25:54;44.13;;;38.17;;
16039;SDS011;8124;48.634;8.120;2023-08-31T18:30:59;44.67;;;38.72;;
16039;SDS011;8124;48.634;8.120;2023-08-31T18:36:10;43.17;;;38.38;;
16039;SDS011;8124;48.634;8.120;2023-08-31T18:41:21;44.65;;;38.50;;
16039;SDS011;8124;48.634;8.120;2023-08-31T18:46:44;45.22;;;38.50;;
16039;SDS011;8124;48.634;8.120;2023-08-31T18:51:50;44.83;;;38.38;;
16039;SDS011;8124;48.634;8.120;2023-08-31T18:57:06;47.35;;;38.50;;
16039;SDS011;8124;48.634;8.120;2023-08-31T19:02:20;47.78;;;38.60;;
16039;SDS011;8124;48.634;8.120;2023-08-31T19:07:28;43.30;;;38.38;;
16039;SDS011;8124;48.634;8.120;2023-08-31T19:12:32;44.92;;;38.42;;
16039;SDS011;8124;48.634;8.120;2023-08-31T19:17:35;43.85;;;39.08;;
16039;SDS011;8124;48.634;8.120;2023-08-31T19:22:40;44.70;;;38.85;;
16039;SDS011;8124;48.634;8.120;2023-08-31T19:27:47;43.60;;;38.72;;
16039;SDS011;8124;48.634;8.120;2023-08-31T19:32:50;45.15;;;38.58;;
16039;SDS011;8124;48.634;8.120;2023-08-31T19:37:55;44.42;;;38.33;;
16039;SDS011;8124;48.634;8.120;2023-08-31T19:42:58;45.70;;;38.20;;
16039;SDS011;8124;48.634;8.120;2023-08-31T19:48:02;43.70;;;38.28;;
16039;SDS011;8124;48.634;8.120;2023-08-31T19:53:07;43.47;;;37.75;;
16039;SDS011;8124;48.634;8.120;2023-08-31T19:58:12;43.50;;;38.20;;
16039;SDS011;8124;48.634;8.120;2023-08-31T20:03:15;43.78;;;37.78;;
16039;SDS011;8124;48.634;8.120;2023-08-31T20:08:20;44.83;;;37.65;;
16039;SDS011;8124;48.634;8.120;2023-08-31T20:13:23;43.00;;;37.65;;
16039;SDS011;8124;48.634;8.120;2023-08-31T20:18:26;46.65;;;40.38;;
16039;SDS011;8124;48.634;8.120;2023-08-31T20:23:31;45.97;;;39.40;;
16039;SDS011;8124;48.634;8.120;2023-08-31T20:28:35;42.80;;;38.15;;
16039;SDS011;8124;48.634;8.120;2023-08-31T20:33:38;44.83;;;38.90;;
16039;SDS011;8124;48.634;8.120;2023-08-31T20:38:43;44.15;;;38.55;;
16039;SDS011;8124;48.634;8.120;2023-08-31T20:43:46;43.60;;;38.22;;
16039;SDS011;8124;48.634;8.120;2023-08-31T20:48:49;43.67;;;38.25;;
16039;SDS011;8124;48.634;8.120;2023-08-31T20:53:53;46.28;;;38.72;;
16039;SDS011;8124;48.634;8.120;2023-08-31T20:58:56;43.55;;;38.72;;
16039;SDS011;8124;48.634;8.120;2023-08-31T21:04:00;46.10;;;38.53;;
16039;SDS011;8124;48.634;8.120;2023-08-31T21:09:05;44.42;;;38.25;;
16039;SDS011;8124;48.634;8.120;2023-08-31T21:14:09;44.20;;;37.83;;
16039;SDS011;8124;48.634;8.120;2023-08-31T21:19:12;43.13;;;38.42;;
16039;SDS011;8124;48.634;8.120;2023-08-31T21:24:16;43.40;;;38.28;;
16039;SDS011;8124;48.634;8.120;2023-08-31T21:29:19;44.40;;;39.53;;
16039;SDS011;8124;48.634;8.120;2023-08-31T21:34:22;42.95;;;38.17;;
16039;SDS011;8124;48.634;8.120;2023-08-31T21:39:27;43.55;;;37.85;;
16039;SDS011;8124;48.634;8.120;2023-08-31T21:44:30;44.35;;;38.47;;
16039;SDS011;8124;48.634;8.120;2023-08-31T21:49:33;44.80;;;38.78;;
16039;SDS011;8124;48.634;8.120;2023-08-31T21:54:37;45.67;;;38.00;;
16039;SDS011;8124;48.634;8.120;2023-08-31T21:59:40;43.67;;;38.30;;
16039;SDS011;8124;48.634;8.120;2023-08-31T22:04:43;43.85;;;38.60;;
16039;SDS011;8124;48.634;8.120;2023-08-31T22:09:47;43.85;;;37.67;;
16039;SDS011;8124;48.634;8.120;2023-08-31T22:14:51;43.75;;;38.92;;
16039;SDS011;8124;48.634;8.120;2023-08-31T22:19:54;44.22;;;39.08;;
16039;SDS011;8124;48.634;8.120;2023-08-31T22:24:59;44.75;;;38.75;;
16039;SDS011;8124;48.634;8.120;2023-08-31T22:30:02;44.13;;;38.22;;
16039;SDS011;8124;48.634;8.120;2023-08-31T22:35:06;45.78;;;39.28;;
16039;SDS011;8124;48.634;8.120;2023-08-31T22:40:11;43.10;;;38.40;;
16039;SDS011;8124;48.634;8.120;2023-08-31T22:45:15;43.42;;;38.10;;
16039;SDS011;8124;48.634;8.120;2023-08-31T22:50:18;43.92;;;38.47;;
16039;SDS011;8124;48.634;8.120;2023-08-31T22:55:22;42.65;;;37.95;;
16039;SDS011;8124;48.634;8.120;2023-08-31T23:00:25;42.92;;;37.75;;
16039;SDS011;8124;48.634;8.120;2023-08-31T23:05:28;43.28;;;38.58;;
16039;SDS011;8124;48.634;8.120;2023-08-31T23:10:33;43.80;;;38.80;;
16039;SDS011;8124;48.634;8.120;2023-08-31T23:15:36;43.80;;;38.13;;
16039;SDS011;8124;48.634;8.120;2023-08-31T23:20:39;45.38;;;38.67;;
16039;SDS011;8124;48.634;8.120;2023-08-31T23:25:44;42.45;;;37.85;;
16039;SDS011;8124;48.634;8.120;2023-08-31T23:30:47;43.20;;;38.33;;
16039;SDS011;8124;48.634;8.120;2023-08-31T23:35:51;42.85;;;37.85;;
16039;SDS011;8124;48.634;8.120;2023-08-31T23:40:57;45.60;;;37.83;;
16039;SDS011;8124;48.634;8.120;2023-08-31T23:46:00;44.10;;;37.80;;
16039;SDS011;8124;48.634;8.120;2023-08-31T23:51:03;43.75;;;38.90;;
16039;SDS011;8124;48.634;8.120;2023-08-31T23:56:08;44.80;;;38.55;;
